Humidity-temperature Sensor

Selected Measurement Type: Relative Humidity

 
Relative Humidity [%]     6 entries per hour
Showing data from 6/15/2021 (14:00:00 Z) to 6/14/2021 (00:01:00 Z)
Previous Next [ Day | 3-Days | 7-Days ]
First Last
Prev [ Day | 3-Days | 7-Days ] Next
First Last

Start Time:     :
End Time:     :     
Time (in GMT) :00 :50 :40 :30 :20 :10
Previous Next [ Day | 3-Days | 7-Days ]
First Last
Prev [ Day | 3-Days | 7-Days ] Next
First Last


123 => good data
MM => data is determined as missing
-- => data not received/configured
Back to Top Back to Top
6/15/2021 14:00 to 13:10 91.89 92.03 91.72 91.81 91.72 91.70
6/15/2021 13:00 to 12:10 91.79 92.09 92.48 93.43 93.80 93.88
6/15/2021 12:00 to 11:10 93.92 93.84 93.22 92.20 91.74 91.85
6/15/2021 11:00 to 10:10 92.55 92.67 93.04 94.37 95.46 94.91
6/15/2021 10:00 to 9:10 94.83 94.52 94.97 94.99 94.58 93.90
6/15/2021 09:00 to 8:10 93.66 94.52 95.26 94.56 93.61 92.55
6/15/2021 08:00 to 7:10 90.39 89.34 89.26 88.81 88.52 88.68
6/15/2021 07:00 to 6:10 88.56 89.46 90.12 90.70 91.95 94.29
6/15/2021 06:00 to 5:10 95.44 95.20 94.91 94.83 93.74 92.96
6/15/2021 05:00 to 4:10 92.75 92.77 92.90 93.10 93.12 93.33
6/15/2021 04:00 to 3:10 93.70 94.07 94.25 94.25 94.64 94.81
6/15/2021 03:00 to 2:10 95.09 95.18 95.30 95.32 95.22 95.11
6/15/2021 02:00 to 1:10 94.87 94.23 94.13 94.48 94.70 94.83
6/15/2021 01:00 to 0:10 94.54 94.56 94.58 94.72 94.54 94.48
6/15/2021 00:00 to 23:10 94.77 94.95 95.28 95.07 94.68 94.31
6/14/2021 23:00 to 22:10 93.88 93.41 93.08 92.30 91.81 91.77
6/14/2021 22:00 to 21:10 91.79 91.97 91.99 91.99 92.53 93.27
6/14/2021 21:00 to 20:10 93.78 93.92 93.80 93.31 92.71 92.50
6/14/2021 20:00 to 19:10 92.22 92.03 92.26 92.77 93.66 94.42
6/14/2021 19:00 to 18:10 95.03 95.38 95.90 96.39 96.66 96.96
6/14/2021 18:00 to 17:10 97.35 97.50 97.42 97.35 97.58 97.48
6/14/2021 17:00 to 16:10 97.31 97.35 97.38 97.40 97.46 97.60
6/14/2021 16:00 to 15:10 97.77 97.95 97.93 97.95 97.85 97.93
6/14/2021 15:00 to 14:10 97.93 97.93 98.07 97.93 97.89 98.34
6/14/2021 14:00 to 13:10 98.36 98.48 98.53 98.11 97.11 96.14
6/14/2021 13:00 to 12:10 94.74 91.07 91.33 91.70 91.50 91.00
6/14/2021 12:00 to 11:10 91.48 92.40 92.30 91.91 91.91 91.44
6/14/2021 11:00 to 10:10 91.03 90.78 90.45 89.96 89.28 88.79
6/14/2021 10:00 to 9:10 88.79 88.93 88.77 88.74 89.11 89.55
6/14/2021 09:00 to 8:10 89.71 89.53 89.38 89.73 90.12 90.72
6/14/2021 08:00 to 7:10 91.74 93.43 95.03 96.47 96.47 96.18
6/14/2021 07:00 to 6:10 95.42 94.70 93.02 91.50 91.05 91.23
6/14/2021 06:00 to 5:10 91.91 92.61 92.96 93.41 93.96 94.35
6/14/2021 05:00 to 4:10 95.30 95.75 95.65 95.51 94.70 94.35
6/14/2021 04:00 to 3:10 93.02 91.81 91.29 90.94 90.37 90.63
6/14/2021 03:00 to 2:10 90.39 90.49 90.84 91.85 92.85 93.02
6/14/2021 02:00 to 1:10 92.42 91.89 90.51 89.28 88.52 88.17
6/14/2021 01:00 to 0:10 87.74 88.44 89.67 90.29 89.79 89.67